Time;durP1;ratioP1;P1;durP2;ratioP2;P2;SDS_P1;SDS_P2;PMS_P1;PMS_P2;Temp;Humidity;BMP_temperature;BMP_pressure;BME280_temperature;BME280_humidity;BME280_pressure;Samples;Min_cycle;Max_cycle;Signal;HPM_P1;HPM_P2
2022/05/17 00:00:00;;;;;;;;;29.00;29.00;26.70;35.90;;;;;;5034170;28;8839;-77
2022/05/17 00:02:26;;;;;;;;;34.00;32.33;26.80;36.20;;;;;;5034047;28;8782;-76
2022/05/17 00:04:52;;;;;;;;;37.67;35.00;26.70;36.80;;;;;;5034241;28;8880;-77
2022/05/17 00:07:18;;;;;;;;;39.67;36.33;26.70;36.80;;;;;;5031394;28;8859;-77
2022/05/17 00:09:44;;;;;;;;;39.00;35.33;26.70;37.10;;;;;;5031351;28;8889;-75
2022/05/17 00:12:10;;;;;;;;;36.33;34.00;26.70;37.40;;;;;;5029557;28;8834;-76
2022/05/17 00:14:36;;;;;;;;;38.33;35.33;26.70;37.40;;;;;;5014466;28;8934;-75
2022/05/17 00:17:02;;;;;;;;;31.00;31.00;26.70;37.70;;;;;;5017135;28;8887;-75
2022/05/17 00:19:29;;;;;;;;;28.67;28.67;26.60;36.70;;;;;;5018184;28;9622;-75
2022/05/17 00:21:55;;;;;;;;;37.00;34.33;26.50;36.80;;;;;;5018201;28;9458;-75
2022/05/17 00:24:24;;;;;;;;;32.33;31.33;26.50;37.00;;;;;;5018140;28;8791;-75
2022/05/17 00:26:50;;;;;;;;;37.67;34.33;26.50;37.20;;;;;;5017935;28;8804;-75
2022/05/17 00:29:16;;;;;;;;;37.67;35.00;26.50;37.20;;;;;;5018078;28;8831;-77
2022/05/17 00:31:42;;;;;;;;;30.33;30.00;26.50;37.50;;;;;;5017800;28;8867;-75
2022/05/17 00:34:08;;;;;;;;;30.00;30.00;26.50;37.00;;;;;;5017639;28;8922;-75
2022/05/17 00:36:34;;;;;;;;;35.33;33.67;26.60;36.70;;;;;;5017624;28;8850;-75
2022/05/17 00:39:01;;;;;;;;;33.33;32.00;26.60;37.10;;;;;;5017685;28;8760;-76
2022/05/17 00:41:27;;;;;;;;;35.67;34.00;26.50;37.70;;;;;;5017807;28;8808;-75
2022/05/17 00:46:51;;;;;;;;;35.33;33.33;26.20;38.40;;;;;;5017609;28;8760;-74
2022/05/17 00:49:39;;;;;;;;;36.33;34.00;26.00;38.90;;;;;;5017545;28;8795;-76
2022/05/17 00:52:11;;;;;;;;;33.33;32.33;26.10;39.00;;;;;;5016383;28;9466;-75
2022/05/17 00:54:37;;;;;;;;;34.67;33.00;26.20;38.80;;;;;;5017347;28;8772;-75
2022/05/17 00:57:23;;;;;;;;;36.00;33.33;26.30;38.40;;;;;;5017505;28;8760;-76
2022/05/17 00:59:50;;;;;;;;;34.00;33.00;26.30;37.90;;;;;;5017504;28;8804;-74
2022/05/17 01:02:18;;;;;;;;;32.33;31.67;26.20;37.60;;;;;;5017378;28;8804;-74
2022/05/17 01:04:44;;;;;;;;;28.67;28.67;26.10;37.60;;;;;;5017193;28;8878;-75
2022/05/17 01:07:25;;;;;;;;;30.33;30.00;26.10;37.50;;;;;;5017121;28;8867;-75
2022/05/17 01:09:51;;;;;;;;;31.33;31.33;26.00;37.40;;;;;;5017112;28;8784;-75
2022/05/17 01:12:17;;;;;;;;;28.33;28.33;25.90;37.50;;;;;;5017002;28;8773;-74
2022/05/17 01:14:57;;;;;;;;;32.00;31.33;25.90;37.60;;;;;;5016835;28;8828;-75
2022/05/17 01:17:32;;;;;;;;;34.00;33.00;26.00;37.50;;;;;;5016945;28;8826;-74
2022/05/17 01:19:59;;;;;;;;;31.00;31.00;26.00;37.60;;;;;;5017192;28;8788;-74
2022/05/17 01:22:25;;;;;;;;;29.67;29.67;25.90;37.60;;;;;;5016722;28;8804;-74
2022/05/17 01:24:51;;;;;;;;;33.33;32.33;25.90;37.60;;;;;;5016824;28;8776;-75
2022/05/17 01:27:25;;;;;;;;;30.33;30.33;25.90;38.20;;;;;;5015966;28;8881;-74
2022/05/17 01:29:51;;;;;;;;;29.67;29.67;25.80;38.40;;;;;;5016925;28;9484;-75
2022/05/17 01:32:18;;;;;;;;;32.00;31.33;25.90;38.50;;;;;;5016676;28;8811;-74
2022/05/17 01:34:44;;;;;;;;;28.67;28.67;25.80;38.00;;;;;;5016412;28;8847;-75
2022/05/17 01:37:12;;;;;;;;;27.00;27.00;25.70;37.90;;;;;;5016552;28;8807;-75
2022/05/17 01:39:38;;;;;;;;;24.67;24.67;25.60;38.10;;;;;;5016592;28;8756;-75
2022/05/17 01:42:04;;;;;;;;;28.67;28.67;25.60;38.20;;;;;;5016361;28;8838;-74
2022/05/17 01:44:31;;;;;;;;;30.00;30.00;25.60;38.60;;;;;;5016654;28;8835;-75
2022/05/17 01:46:57;;;;;;;;;29.67;29.67;25.60;38.90;;;;;;5016649;28;8780;-75
2022/05/17 01:49:23;;;;;;;;;32.00;31.33;25.40;38.70;;;;;;5016263;28;8843;-76
2022/05/17 01:51:48;;;;;;;;;26.00;26.00;25.50;39.10;;;;;;5016292;28;8776;-75
2022/05/17 01:54:15;;;;;;;;;30.33;30.33;25.40;38.90;;;;;;5016472;28;8772;-75
2022/05/17 01:56:40;;;;;;;;;29.00;29.00;25.50;38.50;;;;;;5016350;28;8771;-75
2022/05/17 01:59:06;;;;;;;;;29.00;29.00;25.30;38.70;;;;;;5031714;28;9375;-75
2022/05/17 02:01:32;;;;;;;;;32.00;31.33;25.40;38.70;;;;;;5016195;28;8927;-74
2022/05/17 02:03:58;;;;;;;;;28.67;28.67;25.40;38.80;;;;;;5016296;28;9509;-74
2022/05/17 02:06:24;;;;;;;;;32.00;31.00;25.40;39.00;;;;;;5016158;28;8779;-75
2022/05/17 02:08:50;;;;;;;;;36.67;34.33;25.30;39.50;;;;;;5016187;28;8752;-74
2022/05/17 02:11:16;;;;;;;;;33.00;32.00;25.30;39.60;;;;;;5015865;28;8779;-74
2022/05/17 02:13:42;;;;;;;;;31.00;30.00;25.40;39.70;;;;;;5016009;28;8784;-75
2022/05/17 02:16:10;;;;;;;;;34.33;33.00;25.40;39.60;;;;;;5015794;28;8772;-74
2022/05/17 02:18:36;;;;;;;;;32.67;31.67;25.40;39.60;;;;;;5015786;28;8764;-74
2022/05/17 02:21:03;;;;;;;;;35.00;33.33;25.40;39.50;;;;;;5015858;28;8851;-74
2022/05/17 02:23:29;;;;;;;;;31.00;31.00;25.30;39.40;;;;;;5015710;28;8841;-73
2022/05/17 02:25:55;;;;;;;;;26.67;26.67;25.30;39.80;;;;;;5015771;28;8783;-75
2022/05/17 02:28:21;;;;;;;;;32.33;31.67;25.20;40.00;;;;;;5015649;28;8798;-74
2022/05/17 02:30:46;;;;;;;;;33.33;32.33;25.20;39.80;;;;;;5015460;28;9444;-73
2022/05/17 02:33:13;;;;;;;;;34.00;33.00;25.10;39.80;;;;;;5015302;28;8800;-73
2022/05/17 02:35:40;;;;;;;;;31.67;31.67;25.10;39.80;;;;;;5021264;28;8798;-74
2022/05/17 02:38:07;;;;;;;;;34.00;33.00;25.10;39.70;;;;;;5027516;28;8595;-76
2022/05/17 02:40:33;;;;;;;;;35.00;33.00;25.10;39.80;;;;;;5016213;28;8797;-74
2022/05/17 02:42:59;;;;;;;;;37.67;34.67;25.20;39.90;;;;;;5015505;28;8847;-74
2022/05/17 02:45:25;;;;;;;;;39.33;36.00;25.10;39.70;;;;;;5015560;28;8804;-74
2022/05/17 02:47:52;;;;;;;;;23.33;23.33;25.20;39.70;;;;;;5015109;28;8810;-75
2022/05/17 02:50:18;;;;;;;;;38.33;34.67;24.90;39.70;;;;;;5015366;28;8776;-73
2022/05/17 02:52:44;;;;;;;;;45.00;39.00;25.00;40.80;;;;;;5015187;28;8848;-74
2022/05/17 02:55:10;;;;;;;;;36.00;34.00;25.00;39.90;;;;;;5019899;28;8762;-75
2022/05/17 02:57:36;;;;;;;;;40.33;36.67;25.00;39.90;;;;;;5034454;28;8769;-74
2022/05/17 03:00:06;;;;;;;;;44.67;38.67;25.10;40.10;;;;;;5034870;28;8838;-74
2022/05/17 03:02:32;;;;;;;;;40.33;36.33;25.10;40.00;;;;;;5034747;28;8758;-75
2022/05/17 03:04:57;;;;;;;;;32.00;31.67;25.00;40.10;;;;;;5034779;28;8750;-74
2022/05/17 03:07:23;;;;;;;;;35.00;33.33;25.10;40.20;;;;;;5034715;28;8858;-74
2022/05/17 03:09:49;;;;;;;;;35.00;33.67;25.10;40.10;;;;;;5034845;28;8774;-75
2022/05/17 03:12:14;;;;;;;;;33.67;32.67;24.90;40.40;;;;;;5034802;28;8797;-74
2022/05/17 03:14:40;;;;;;;;;29.00;29.00;24.70;40.90;;;;;;5034938;28;8806;-74
2022/05/17 03:17:16;;;;;;;;;41.00;37.67;24.80;41.10;;;;;;5034860;28;8762;-76
2022/05/17 03:19:42;;;;;;;;;38.00;36.00;24.90;41.20;;;;;;5034733;28;8796;-74
2022/05/17 03:22:08;;;;;;;;;45.33;39.33;24.90;41.10;;;;;;5034698;28;8777;-76
2022/05/17 03:24:34;;;;;;;;;40.67;36.33;24.90;41.50;;;;;;5034420;28;9476;-74
2022/05/17 03:27:01;;;;;;;;;45.33;39.67;24.60;41.70;;;;;;5029232;28;8794;-75
2022/05/17 03:29:28;;;;;;;;;48.00;42.00;24.70;42.10;;;;;;5028953;28;8922;-75
2022/05/17 03:31:54;;;;;;;;;47.25;41.25;24.70;42.30;;;;;;5014722;28;9708;-75
2022/05/17 03:34:20;;;;;;;;;46.00;40.50;24.60;42.50;;;;;;5014408;28;8847;-75
2022/05/17 03:36:46;;;;;;;;;43.67;38.67;24.50;42.90;;;;;;5014910;28;8761;-74
2022/05/17 03:39:12;;;;;;;;;45.75;39.50;24.70;42.50;;;;;;5021832;28;8789;-75
2022/05/17 03:41:38;;;;;;;;;47.00;40.75;24.80;42.30;;;;;;5030930;28;8782;-77
2022/05/17 03:44:04;;;;;;;;;45.00;38.75;24.80;42.30;;;;;;5015031;28;8846;-77
2022/05/17 03:46:30;;;;;;;;;46.25;40.00;24.70;42.30;;;;;;5014364;28;8776;-75
2022/05/17 03:48:55;;;;;;;;;43.00;39.00;24.80;42.40;;;;;;5014709;28;8784;-74
2022/05/17 03:51:22;;;;;;;;;46.50;39.75;24.80;42.40;;;;;;5016677;28;8866;-77
2022/05/17 03:53:50;;;;;;;;;49.25;42.50;24.70;42.20;;;;;;5018724;28;8776;-74
2022/05/17 03:56:16;;;;;;;;;44.25;39.00;24.80;42.30;;;;;;5018723;28;8757;-75
2022/05/17 03:58:43;;;;;;;;;46.25;40.50;24.60;42.50;;;;;;5018753;28;8768;-75
2022/05/17 04:01:10;;;;;;;;;46.50;40.50;24.60;42.60;;;;;;5021217;28;8778;-77
2022/05/17 04:03:37;;;;;;;;;41.25;37.25;24.70;43.00;;;;;;5035523;28;8794;-76
2022/05/17 04:06:04;;;;;;;;;41.33;37.33;24.70;42.50;;;;;;5019605;28;8895;-76
2022/05/17 04:08:30;;;;;;;;;41.25;37.00;24.40;42.80;;;;;;5018183;28;8800;-75
2022/05/17 04:10:56;;;;;;;;;41.33;38.00;24.50;42.80;;;;;;5018098;28;8826;-76
2022/05/17 04:13:23;;;;;;;;;44.00;38.50;24.60;42.80;;;;;;5018314;28;8786;-74
2022/05/17 04:15:49;;;;;;;;;47.00;41.25;24.70;42.70;;;;;;5018194;28;8803;-77
2022/05/17 04:18:15;;;;;;;;;44.50;39.25;24.80;42.60;;;;;;5017963;28;8768;-76
2022/05/17 04:20:41;;;;;;;;;46.25;40.00;24.70;42.40;;;;;;5018183;28;8776;-76
2022/05/17 04:23:06;;;;;;;;;44.75;39.25;24.90;42.30;;;;;;5017930;28;8800;-75
2022/05/17 04:25:32;;;;;;;;;47.50;40.50;25.00;42.20;;;;;;5018006;28;8784;-75
2022/05/17 04:27:58;;;;;;;;;43.25;38.25;25.10;42.30;;;;;;5017841;28;8788;-75
2022/05/17 04:30:24;;;;;;;;;44.67;39.33;25.20;42.20;;;;;;5017734;28;8903;-74
2022/05/17 04:32:50;;;;;;;;;42.50;37.75;25.40;41.70;;;;;;5017979;28;8807;-74
2022/05/17 04:35:18;;;;;;;;;42.33;37.33;25.40;41.10;;;;;;4978664;28;8852;-75
2022/05/17 04:37:43;;;;;;;;;41.00;37.00;25.50;40.90;;;;;;4977685;28;8797;-75
2022/05/17 04:40:13;;;;;;;;;43.00;36.67;25.60;40.70;;;;;;4988978;28;8803;-73
2022/05/17 04:42:40;;;;;;;;;39.33;36.00;25.90;39.80;;;;;;4982419;28;9468;-76
2022/05/17 04:45:07;;;;;;;;;36.33;34.33;25.90;39.20;;;;;;4983019;28;8821;-76
2022/05/17 04:47:33;;;;;;;;;36.67;34.00;25.90;39.00;;;;;;4978708;28;8773;-76
2022/05/17 04:49:59;;;;;;;;;39.00;35.00;26.00;38.90;;;;;;4978725;28;8899;-75
2022/05/17 04:52:26;;;;;;;;;37.67;34.67;26.20;38.90;;;;;;4995316;28;8922;-76
2022/05/17 04:54:52;;;;;;;;;35.67;34.00;26.20;38.60;;;;;;4997861;28;8787;-75
2022/05/17 04:57:18;;;;;;;;;41.00;37.00;26.20;38.80;;;;;;4996586;28;8885;-74
2022/05/17 04:59:44;;;;;;;;;39.00;36.00;25.60;39.80;;;;;;4998091;28;8782;-76
2022/05/17 05:02:10;;;;;;;;;30.00;30.00;25.40;40.50;;;;;;4996431;28;8806;-73
2022/05/17 05:04:38;;;;;;;;;38.00;35.00;25.50;40.20;;;;;;4988583;28;8786;-73
2022/05/17 05:07:04;;;;;;;;;31.00;30.67;25.20;39.90;;;;;;4978121;28;8812;-73
2022/05/17 05:09:31;;;;;;;;;37.00;34.67;24.90;41.20;;;;;;4978011;28;8869;-74
2022/05/17 05:11:57;;;;;;;;;31.00;31.00;24.80;42.00;;;;;;4976991;28;8801;-73
2022/05/17 05:14:23;;;;;;;;;32.00;30.67;25.00;41.60;;;;;;4978147;28;8839;-73
2022/05/17 05:16:48;;;;;;;;;36.00;34.00;25.00;41.50;;;;;;4977809;28;9424;-74
2022/05/17 05:19:14;;;;;;;;;40.00;36.33;25.40;41.60;;;;;;4978118;28;8785;-74
2022/05/17 05:21:40;;;;;;;;;35.33;33.67;25.80;40.90;;;;;;4978015;28;9729;-74
2022/05/17 05:24:07;;;;;;;;;40.00;35.33;26.00;40.90;;;;;;4977890;28;8785;-76
2022/05/17 05:26:34;;;;;;;;;32.33;31.33;26.10;40.20;;;;;;4977756;28;8889;-74
2022/05/17 05:29:00;;;;;;;;;30.67;30.00;25.80;40.30;;;;;;4978105;28;8935;-75
2022/05/17 05:31:26;;;;;;;;;28.67;27.67;25.60;40.50;;;;;;4977772;28;8808;-75
2022/05/17 05:33:52;;;;;;;;;26.33;26.33;25.30;41.30;;;;;;4994223;28;8969;-75
2022/05/17 05:36:17;;;;;;;;;32.00;31.67;25.10;41.60;;;;;;5016299;28;8859;-76
2022/05/17 05:38:43;;;;;;;;;30.33;30.33;24.90;42.00;;;;;;5016474;28;8909;-75
2022/05/17 05:41:10;;;;;;;;;29.67;29.67;24.40;43.40;;;;;;5016355;28;8807;-77
2022/05/17 05:43:36;;;;;;;;;28.67;27.67;24.60;43.30;;;;;;5016357;28;9427;-74
2022/05/17 05:46:02;;;;;;;;;29.67;29.67;24.60;44.10;;;;;;5016254;28;8792;-74
2022/05/17 05:48:27;;;;;;;;;26.33;26.33;24.70;43.30;;;;;;5016261;28;8803;-74
2022/05/17 05:50:53;;;;;;;;;27.33;27.33;24.70;43.10;;;;;;5016458;28;8894;-76
2022/05/17 05:53:20;;;;;;;;;29.00;29.00;24.60;43.80;;;;;;5016258;28;8830;-75
2022/05/17 05:55:50;;;;;;;;;24.67;24.67;24.70;43.60;;;;;;5016237;28;8776;-74
2022/05/17 05:58:17;;;;;;;;;25.33;25.33;24.80;43.80;;;;;;5016292;28;8803;-76
2022/05/17 06:00:43;;;;;;;;;31.00;29.67;25.30;43.40;;;;;;5016155;28;8780;-76
2022/05/17 06:03:09;;;;;;;;;28.00;27.67;25.30;43.00;;;;;;5016092;28;8777;-75
2022/05/17 06:05:36;;;;;;;;;26.00;26.00;25.60;42.60;;;;;;5016178;28;8792;-74
2022/05/17 06:08:03;;;;;;;;;22.33;22.33;26.00;42.00;;;;;;5016007;28;8803;-74
2022/05/17 06:10:29;;;;;;;;;22.67;22.67;26.00;41.50;;;;;;5016174;28;8791;-75
2022/05/17 06:12:55;;;;;;;;;20.00;20.00;26.20;41.80;;;;;;5016010;28;8887;-75
2022/05/17 06:15:21;;;;;;;;;21.67;21.67;25.90;42.70;;;;;;5015980;28;9002;-77
2022/05/17 06:17:47;;;;;;;;;22.33;22.33;25.80;43.00;;;;;;5016042;28;8756;-76
2022/05/17 06:20:14;;;;;;;;;22.67;22.67;25.90;42.40;;;;;;5016208;28;8861;-77
2022/05/17 06:22:41;;;;;;;;;16.00;16.00;26.00;42.40;;;;;;5015806;28;8806;-75
2022/05/17 06:25:08;;;;;;;;;25.33;25.33;26.00;42.00;;;;;;5016081;28;8768;-75
2022/05/17 06:27:34;;;;;;;;;20.33;20.33;25.90;42.50;;;;;;5015948;28;8772;-75
2022/05/17 06:30:00;;;;;;;;;23.33;23.33;26.00;42.70;;;;;;5015632;28;8769;-75
2022/05/17 06:32:25;;;;;;;;;23.67;23.67;25.40;44.80;;;;;;5015687;28;8792;-74
2022/05/17 06:34:52;;;;;;;;;21.33;21.33;25.30;45.50;;;;;;5015396;28;8824;-75
2022/05/17 06:37:17;;;;;;;;;23.67;23.67;25.50;45.40;;;;;;5015600;28;8891;-75
2022/05/17 06:39:43;;;;;;;;;23.00;23.00;25.60;45.50;;;;;;5015798;28;8801;-76
2022/05/17 06:42:10;;;;;;;;;13.00;13.00;25.80;45.00;;;;;;5015712;28;8760;-75
2022/05/17 06:44:39;;;;;;;;;24.33;24.33;25.40;45.50;;;;;;5015616;28;8804;-75
2022/05/17 06:47:06;;;;;;;;;22.33;22.33;25.40;45.90;;;;;;5015265;28;8910;-74
2022/05/17 06:49:32;;;;;;;;;26.67;26.67;25.50;46.50;;;;;;5015393;28;8792;-74
2022/05/17 06:52:02;;;;;;;;;25.00;25.00;26.20;45.50;;;;;;5015560;28;8803;-75
2022/05/17 06:54:28;;;;;;;;;24.00;24.00;26.40;44.40;;;;;;5015308;28;9367;-77
2022/05/17 06:56:54;;;;;;;;;24.00;24.00;27.00;42.90;;;;;;5015409;28;8788;-75
2022/05/17 06:59:19;;;;;;;;;20.33;20.33;26.60;43.10;;;;;;5015371;28;8803;-74
2022/05/17 07:01:49;;;;;;;;;22.33;22.33;25.70;44.70;;;;;;5014917;28;8862;-74
2022/05/17 07:04:15;;;;;;;;;24.67;24.67;26.30;44.40;;;;;;5015270;28;8776;-75
2022/05/17 07:06:41;;;;;;;;;21.33;21.33;26.60;43.90;;;;;;5014778;28;8780;-76
2022/05/17 07:09:07;;;;;;;;;20.67;20.67;26.90;43.40;;;;;;5015132;28;8800;-75
2022/05/17 07:14:18;;;;;;;;;24.67;24.67;26.60;44.00;;;;;;5015215;28;8922;-75
2022/05/17 07:16:43;;;;;;;;;24.67;24.67;27.10;42.70;;;;;;5015123;28;8930;-75
2022/05/17 07:19:10;;;;;;;;;23.67;23.67;27.30;42.30;;;;;;5030566;28;9494;-74
2022/05/17 07:21:36;;;;;;;;;28.00;27.00;27.50;41.70;;;;;;5014985;28;8787;-75
2022/05/17 07:24:01;;;;;;;;;23.33;23.33;27.30;41.80;;;;;;5014973;28;8784;-74
2022/05/17 07:26:27;;;;;;;;;25.00;25.00;26.50;43.10;;;;;;5014267;28;8776;-73
2022/05/17 07:28:53;;;;;;;;;23.00;23.00;26.30;44.30;;;;;;5014706;28;8788;-77
2022/05/17 07:31:18;;;;;;;;;22.00;22.00;26.70;44.00;;;;;;5014651;28;8812;-74
2022/05/17 07:33:44;;;;;;;;;26.33;26.33;26.60;44.60;;;;;;5014561;28;8840;-75
2022/05/17 07:36:11;;;;;;;;;33.67;32.67;26.70;44.90;;;;;;5014582;28;8840;-76
2022/05/17 07:38:38;;;;;;;;;29.00;29.00;26.60;44.60;;;;;;5013926;28;8804;-75
2022/05/17 07:41:04;;;;;;;;;28.00;28.00;27.20;44.20;;;;;;5014039;28;8799;-74
2022/05/17 07:43:30;;;;;;;;;28.00;28.00;27.40;43.10;;;;;;5012984;28;8824;-75
2022/05/17 07:45:56;;;;;;;;;20.33;20.33;27.20;43.40;;;;;;5014420;28;8784;-74
2022/05/17 07:48:24;;;;;;;;;24.00;24.00;27.40;42.80;;;;;;5014681;28;8764;-74
2022/05/17 07:50:50;;;;;;;;;25.00;25.00;27.10;43.20;;;;;;5014348;28;8823;-74
2022/05/17 07:53:19;;;;;;;;;30.33;30.00;27.10;43.20;;;;;;5014718;28;8883;-73
2022/05/17 07:55:46;;;;;;;;;26.33;26.33;27.30;43.90;;;;;;5029793;28;8807;-74
2022/05/17 07:58:13;;;;;;;;;27.33;27.33;28.20;42.70;;;;;;5014421;28;8764;-75
2022/05/17 08:00:41;;;;;;;;;29.00;29.00;28.90;41.20;;;;;;5014453;28;9433;-74
2022/05/17 08:03:08;;;;;;;;;27.33;27.33;29.10;39.80;;;;;;5014391;28;8768;-74
2022/05/17 08:05:35;;;;;;;;;24.00;24.00;28.10;41.20;;;;;;5014112;28;8791;-75
2022/05/17 08:08:02;;;;;;;;;24.33;24.33;27.60;43.20;;;;;;5014532;28;8756;-74
2022/05/17 08:10:29;;;;;;;;;21.33;21.33;27.60;42.80;;;;;;5014198;28;8769;-75
2022/05/17 08:12:55;;;;;;;;;25.33;25.33;27.40;43.10;;;;;;5029708;28;8796;-74
2022/05/17 08:15:23;;;;;;;;;27.67;27.67;27.60;43.00;;;;;;5014164;28;8808;-76
2022/05/17 08:17:49;;;;;;;;;30.33;30.00;28.00;42.90;;;;;;5014529;28;8784;-75
2022/05/17 08:20:15;;;;;;;;;28.33;28.33;28.20;44.00;;;;;;5014120;28;8852;-74
2022/05/17 08:22:43;;;;;;;;;30.67;30.00;28.60;45.50;;;;;;5014434;28;8784;-73
2022/05/17 08:27:57;;;;;;;;;25.00;25.00;28.50;45.60;;;;;;5014166;28;8756;-73
2022/05/17 08:30:24;;;;;;;;;30.33;30.00;28.90;45.70;;;;;;5014186;28;8784;-76
2022/05/17 08:35:43;;;;;;;;;25.67;25.67;29.20;44.90;;;;;;5014145;28;8764;-74
2022/05/17 08:38:11;;;;;;;;;33.67;32.33;29.00;45.30;;;;;;5017325;28;9449;-73
2022/05/17 08:40:49;;;;;;;;;35.67;33.67;29.20;46.30;;;;;;5017554;28;9454;-73
2022/05/17 08:43:23;;;;;;;;;27.33;27.33;29.40;45.50;;;;;;5032844;28;8806;-73
2022/05/17 08:46:28;;;;;;;;;30.67;30.67;29.50;44.60;;;;;;5017530;28;8795;-73
2022/05/17 08:49:32;;;;;;;;;27.33;27.33;29.40;45.10;;;;;;5017754;28;8796;-75
2022/05/17 08:52:14;;;;;;;;;28.33;28.33;29.30;47.10;;;;;;5017556;28;8875;-74
2022/05/17 08:55:12;;;;;;;;;30.33;29.33;28.80;46.90;;;;;;5017605;28;8811;-73
2022/05/17 08:57:42;;;;;;;;;28.00;28.00;28.90;46.10;;;;;;5017397;28;8780;-74
2022/05/17 09:00:19;;;;;;;;;35.67;33.00;29.00;45.70;;;;;;5017494;28;8791;-74
2022/05/17 09:03:09;;;;;;;;;31.33;31.00;29.10;44.90;;;;;;5017524;28;8792;-74
2022/05/17 09:06:11;;;;;;;;;28.00;28.00;28.80;45.60;;;;;;4996438;28;8795;-73
2022/05/17 09:08:59;;;;;;;;;37.00;34.00;28.30;46.10;;;;;;4976137;28;9459;-76
2022/05/17 09:11:52;;;;;;;;;34.33;32.00;28.70;46.90;;;;;;4975600;28;8828;-75
2022/05/17 09:14:22;;;;;;;;;35.33;33.00;29.10;46.80;;;;;;4976076;28;8870;-75
2022/05/17 09:17:04;;;;;;;;;33.67;32.00;29.20;46.70;;;;;;4975998;28;8795;-76
2022/05/17 09:19:30;;;;;;;;;34.00;32.33;29.30;45.40;;;;;;4976116;28;8785;-77
2022/05/17 09:22:00;;;;;;;;;31.00;30.00;29.40;45.90;;;;;;4975814;28;8871;-76
2022/05/17 09:24:30;;;;;;;;;37.00;34.00;29.30;46.10;;;;;;4975353;28;8765;-77
2022/05/17 09:27:24;;;;;;;;;34.00;32.33;29.60;45.90;;;;;;4975580;28;8771;-74
2022/05/17 09:29:54;;;;;;;;;29.67;29.67;29.80;45.10;;;;;;4975618;28;8808;-76
2022/05/17 09:32:29;;;;;;;;;33.33;32.00;30.00;44.40;;;;;;4975538;28;8828;-75
2022/05/17 09:35:03;;;;;;;;;34.00;32.33;30.30;43.20;;;;;;4975388;28;8828;-75
2022/05/17 09:37:37;;;;;;;;;31.67;31.00;30.40;42.20;;;;;;4975222;28;8815;-74
2022/05/17 09:40:07;;;;;;;;;30.00;30.00;30.50;42.00;;;;;;4975399;28;8794;-74
2022/05/17 09:42:42;;;;;;;;;27.00;27.00;30.60;41.30;;;;;;4995249;28;8776;-73
2022/05/17 09:45:16;;;;;;;;;16.67;16.67;30.60;41.50;;;;;;5016869;28;8901;-73
2022/05/17 09:47:57;;;;;;;;;21.00;21.00;30.30;39.90;;;;;;5015959;28;8760;-73
2022/05/17 09:53:14;;;;;;;;;16.00;16.00;30.50;40.60;;;;;;5016409;28;9366;-73
2022/05/17 09:55:46;;;;;;;;;22.00;22.00;30.00;37.90;;;;;;5015841;28;11547;-73
2022/05/17 09:58:34;;;;;;;;;20.67;20.67;30.20;40.10;;;;;;5016135;28;11639;-72
2022/05/17 10:01:10;;;;;;;;;17.33;17.33;30.50;40.70;;;;;;5016146;28;11600;-72
2022/05/17 10:03:40;;;;;;;;;16.67;16.67;31.20;37.00;;;;;;5016126;28;8764;-73
2022/05/17 10:06:29;;;;;;;;;11.33;11.33;31.50;35.90;;;;;;5015780;28;11593;-73
2022/05/17 10:09:01;;;;;;;;;22.67;22.67;31.80;34.70;;;;;;5015840;28;11489;-73
2022/05/17 10:11:38;;;;;;;;;23.67;23.67;32.10;35.80;;;;;;5015942;28;11569;-73
2022/05/17 10:14:11;;;;;;;;;22.33;22.33;32.30;35.10;;;;;;5015656;28;11566;-73
2022/05/17 10:16:47;;;;;;;;;21.00;21.00;32.70;34.00;;;;;;5016105;28;8802;-74
2022/05/17 10:19:17;;;;;;;;;24.00;24.00;32.70;35.60;;;;;;5015677;28;11517;-73
2022/05/17 10:21:58;;;;;;;;;18.00;18.00;33.20;35.40;;;;;;5015766;28;12268;-73
2022/05/17 10:24:43;;;;;;;;;21.33;21.33;33.00;33.80;;;;;;5015460;28;8761;-79
2022/05/17 10:27:40;;;;;;;;;24.00;24.00;33.80;33.70;;;;;;5026065;28;8754;-77
2022/05/17 10:30:14;;;;;;;;;18.33;18.33;34.50;34.10;;;;;;4972624;28;8899;-75
2022/05/17 10:32:52;;;;;;;;;22.00;22.00;33.80;33.30;;;;;;4973004;28;8852;-77
2022/05/17 10:35:23;;;;;;;;;24.67;24.67;33.90;33.60;;;;;;4970967;28;11508;-76
2022/05/17 10:37:57;;;;;;;;;24.67;24.67;34.40;31.90;;;;;;4973002;28;8932;-76
2022/05/17 10:40:29;;;;;;;;;25.00;25.00;35.00;31.60;;;;;;4972838;28;8900;-76
2022/05/17 10:42:56;;;;;;;;;26.00;26.00;35.70;31.50;;;;;;4970608;28;8855;-76
2022/05/17 10:45:33;;;;;;;;;26.33;26.33;35.60;30.30;;;;;;4972808;28;8805;-76
2022/05/17 10:48:15;;;;;;;;;19.67;19.67;35.30;30.00;;;;;;4970793;28;8804;-76
2022/05/17 10:51:19;;;;;;;;;22.00;22.00;35.00;30.50;;;;;;4971936;28;12199;-75
2022/05/17 10:54:13;;;;;;;;;25.33;25.33;35.00;32.30;;;;;;4972692;28;8789;-75
2022/05/17 10:57:05;;;;;;;;;27.00;27.00;35.20;31.80;;;;;;4972667;28;8911;-75
2022/05/17 10:59:50;;;;;;;;;25.33;25.33;35.00;30.80;;;;;;4972445;28;8805;-74
2022/05/17 11:02:15;;;;;;;;;24.00;24.00;33.40;31.30;;;;;;4958992;28;8896;-75
2022/05/17 11:05:02;;;;;;;;;28.00;28.00;33.50;32.90;;;;;;4973616;28;11500;-75
2022/05/17 11:07:47;;;;;;;;;24.67;24.67;34.10;32.60;;;;;;5012635;28;9481;-74
2022/05/17 11:10:35;;;;;;;;;28.00;28.00;34.40;32.40;;;;;;5034050;28;8766;-74
2022/05/17 11:13:09;;;;;;;;;30.00;30.00;33.80;33.50;;;;;;5034789;28;8793;-74
2022/05/17 11:15:42;;;;;;;;;28.00;28.00;33.40;34.20;;;;;;5034635;28;8774;-75
2022/05/17 11:18:14;;;;;;;;;28.33;28.33;33.60;32.60;;;;;;5032852;28;8776;-75
2022/05/17 11:21:04;;;;;;;;;25.67;25.67;34.40;31.70;;;;;;5022733;28;8812;-76
2022/05/17 11:24:06;;;;;;;;;22.33;22.33;34.80;31.70;;;;;;5026400;28;9475;-75
2022/05/17 11:26:57;;;;;;;;;22.67;22.67;35.40;30.80;;;;;;5033896;28;11537;-74
2022/05/17 11:29:29;;;;;;;;;26.33;26.33;36.20;30.00;;;;;;5034328;28;8776;-74
2022/05/17 11:31:58;;;;;;;;;28.67;28.67;36.00;30.50;;;;;;5024732;28;8816;-76
2022/05/17 11:34:33;;;;;;;;;26.33;26.33;36.50;30.90;;;;;;5027128;28;8915;-78
2022/05/17 11:37:05;;;;;;;;;22.00;22.00;37.00;30.30;;;;;;5039229;28;8778;-73
2022/05/17 11:39:31;;;;;;;;;21.33;21.33;36.60;30.00;;;;;;5031320;28;8793;-77
2022/05/17 11:42:33;;;;;;;;;26.67;26.67;39.80;30.10;;;;;;5017908;28;8796;-78
2022/05/17 11:45:22;;;;;;;;;26.33;26.33;42.80;26.80;;;;;;5007679;28;8835;-77
2022/05/17 11:47:54;;;;;;;;;24.33;24.33;48.70;23.30;;;;;;5014633;28;8914;-79
2022/05/17 11:50:42;;;;;;;;;24.33;24.33;52.90;20.90;;;;;;5014512;28;8804;-77
2022/05/17 11:53:23;;;;;;;;;27.67;27.67;55.50;18.20;;;;;;5027163;28;11623;-76
2022/05/17 11:56:16;;;;;;;;;26.67;26.67;57.30;17.10;;;;;;5032948;28;8754;-78
2022/05/17 11:58:44;;;;;;;;;27.00;27.00;55.40;16.00;;;;;;5015522;28;11622;-80
2022/05/17 12:01:31;;;;;;;;;27.67;27.67;50.30;17.90;;;;;;5032561;28;8829;-77
2022/05/17 12:03:58;;;;;;;;;25.67;25.67;49.40;19.90;;;;;;5027145;28;8790;-75
2022/05/17 12:06:33;;;;;;;;;27.33;27.33;52.50;18.50;;;;;;5020185;28;11533;-73
2022/05/17 12:08:59;;;;;;;;;24.00;24.00;48.90;18.70;;;;;;5023091;28;11541;-74
2022/05/17 12:11:43;;;;;;;;;27.33;27.33;44.60;20.40;;;;;;5024811;28;11554;-73
2022/05/17 12:14:47;;;;;;;;;20.67;20.67;42.80;23.20;;;;;;5018781;28;8934;-74
2022/05/17 12:17:23;;;;;;;;;26.33;26.33;39.40;25.20;;;;;;5026122;28;11628;-73
2022/05/17 12:20:15;;;;;;;;;22.33;22.33;37.70;27.20;;;;;;5027128;28;8764;-73
2022/05/17 12:22:58;;;;;;;;;26.00;26.00;35.40;28.30;;;;;;5019658;28;11657;-74
2022/05/17 12:25:34;;;;;;;;;25.00;25.00;34.40;31.10;;;;;;5023847;28;8784;-75
2022/05/17 12:28:01;;;;;;;;;21.00;21.00;34.10;31.70;;;;;;5027445;28;8792;-74
2022/05/17 12:33:28;;;;;;;;;23.33;23.33;33.50;31.90;;;;;;5032342;28;8809;-73
2022/05/17 12:36:10;;;;;;;;;24.00;24.00;32.80;33.40;;;;;;5027767;28;8797;-74
2022/05/17 12:44:20;;;;;;;;;27.00;27.00;34.20;31.50;;;;;;5033581;28;8789;-73
2022/05/17 12:46:49;;;;;;;;;24.67;24.67;34.20;32.00;;;;;;5034880;28;8782;-74
2022/05/17 12:49:26;;;;;;;;;22.33;22.33;33.80;31.40;;;;;;5037237;28;8865;-74
2022/05/17 12:52:10;;;;;;;;;26.00;26.00;33.70;31.80;;;;;;5032963;28;11617;-74
2022/05/17 12:54:36;;;;;;;;;24.00;24.00;33.30;32.50;;;;;;5023980;28;8782;-77
2022/05/17 12:57:21;;;;;;;;;19.67;19.67;32.90;32.80;;;;;;5037209;28;8761;-78
2022/05/17 12:59:47;;;;;;;;;21.33;21.33;32.70;33.90;;;;;;5037177;28;8793;-77
2022/05/17 13:02:24;;;;;;;;;20.00;20.00;32.30;32.90;;;;;;5022997;28;11540;-78
2022/05/17 13:04:50;;;;;;;;;21.67;21.67;32.40;32.30;;;;;;5017503;28;8772;-78
2022/05/17 13:07:19;;;;;;;;;18.33;18.33;32.70;32.30;;;;;;5017167;28;12304;-76
2022/05/17 13:09:58;;;;;;;;;19.67;19.33;33.00;31.40;;;;;;5017292;28;8760;-77
2022/05/17 13:12:27;;;;;;;;;21.00;21.00;32.70;31.50;;;;;;5016910;28;11548;-78
2022/05/17 13:14:53;;;;;;;;;16.67;16.67;32.20;31.70;;;;;;5017084;28;11566;-78